• Join FlightAware (Why Join?)
  • Login
  • US Flag 
01:26AM EDT


 

Airport Tracker/Info


-or-


 

Live Flight TrackerFlight Track Log ✈ N333RL ✈ 04-May-2013 ✈ KPBI - KDET

Flight Track Log - Related Links

Times and Time Zones

All times are in EDT time to prevent confusion due to time zone crossing. See the N333RL flight status page for this flight to view local times or setup timezone preferences in your user account.

Time Position Orientation Groundspeed Altitude Reporting Facility
EDT Latitude Longitude Course Direction KTS MPH feet Rate Location/Type
11:39AM 26.6853 -80.2047 336° Northwest 201 231 3,600  Level Miami Center
11:40AM 26.7258 -80.2639 308° West 197 227 6,600 2,700 Climbing Miami Center
11:41AM 26.7836 -80.2961 334° Northwest 251 289 9,100 2,400 Climbing Miami Center
11:42AM 26.8600 -80.3308 338° Northwest 270 311 11,500 2,340 Climbing Miami Center
11:43AM 26.9467 -80.3706 338° Northwest 294 338 13,800 2,280 Climbing Miami Center
11:44AM 27.0013 -80.3923 336° Northwest  Level FlightAware Approximate
11:44AM 27.0333 -80.4083 339° North 318 366 16,100  Level Miami Center
11:45AM 27.1200 -80.4506 337° Northwest 329 379 18,100 1,980 Climbing Miami Center
11:46AM 27.2089 -80.4906 338° Northwest 334 384 20,100 1,920 Climbing Miami Center
11:47AM 27.2997 -80.5333 337° Northwest 339 390 22,000 1,800 Climbing Miami Center
11:48AM 27.3947 -80.5761 338° Northwest 351 404 23,700 1,620 Climbing Miami Center
11:49AM 27.4894 -80.6189 338° Northwest 356 410 25,300 1,620 Climbing Miami Center
11:50AM 27.5906 -80.6644 338° Northwest 371 427 27,000 1,620 Climbing Miami Center
11:51AM 27.6897 -80.7075 339° North 371 427 28,600 1,800 Climbing Miami Center
11:52AM 27.7844 -80.7531 337° Northwest 371 427 30,600 1,680 Climbing Miami Center
11:53AM 27.8711 -80.7889 340° North 366 421 32,000 1,440 Climbing Miami Center
11:54AM 27.9703 -80.8322 339° North 371 427 33,500 1,320 Climbing Miami Center
11:55AM 28.0650 -80.8778 337° Northwest 371 427 34,700 1,080 Climbing Miami Center
11:56AM 28.1639 -80.9214 339° North 371 427 35,700 1,020 Climbing Miami Center
11:57AM 28.2608 -80.9650 338° Northwest 371 427 36,800 600 Climbing Miami Center
11:58AM 28.3658 -81.0136 338° Northwest 378 435 37,000 60 Climbing Miami Center
11:59AM 28.4706 -81.0647 337° Northwest 399 459 37,000  Level Miami Center
12:00PM 28.5817 -81.1161 338° Northwest 412 474 37,000  Level Miami Center
12:01PM 28.6864 -81.1722 335° Northwest 417 480 37,000  Level Miami Center
12:02PM 28.7964 -81.2200 339° North 416 479 37,000  Level Jacksonville Center
12:03PM 28.9056 -81.2703 338° Northwest 421 484 37,000  Level Jacksonville Center
12:04PM 29.0147 -81.3208 338° Northwest 421 484 37,000  Level Jacksonville Center
12:05PM 29.1239 -81.3736 337° Northwest 421 484 37,000  Level Jacksonville Center
12:06PM 29.2394 -81.4289 337° Northwest 421 484 37,000  Level Jacksonville Center
12:07PM 29.3464 -81.4797 337° Northwest 416 479 37,000  Level Jacksonville Center
12:08PM 29.4514 -81.5308 337° Northwest 416 479 37,000  Level Jacksonville Center
12:09PM 29.5603 -81.5817 338° Northwest 416 479 37,000  Level Jacksonville Center
12:10PM 29.6653 -81.6331 337° Northwest 416 479 37,000  Level Jacksonville Center
12:11PM 29.7722 -81.6817 338° Northwest 416 479 37,000 300 Level Jacksonville Center
12:12PM 29.8792 -81.7356 336° Northwest 416 479 37,700 840 Climbing Jacksonville Center
12:13PM 29.9839 -81.7822 339° North 416 479 38,700 780 Climbing Jacksonville Center
12:14PM 30.0783 -81.8244 339° North 409 471 39,300 540 Climbing Jacksonville Center
12:15PM 30.1872 -81.8711 340° North 409 471 39,800 420 Climbing Jacksonville Center
12:16PM 30.3064 -81.8797 356° North 415 478 40,200 360 Climbing Jacksonville Center
12:17PM 30.4275 -81.8831 359° North 421 484 40,600 300 Climbing Jacksonville Center
12:18PM 30.5528 -81.8986 354° North 441 507 40,900 180 Climbing Jacksonville Center
12:19PM 30.6719 -81.9072 356° North 441 507 41,000  Climbing Jacksonville Center
12:20PM 30.7931 -81.9181 356° North 441 507 41,000  Level Jacksonville Center
12:21PM 30.9142 -81.9289 356° North 441 507 41,000  Level Jacksonville Center
12:22PM 31.0375 -81.9397 356° North 441 507 41,000  Level Jacksonville Center
12:23PM 31.1608 -81.9481 357° North 441 507 41,000  Level Jacksonville Center
12:24PM 31.2842 -81.9592 356° North 441 507 41,000  Level Jacksonville Center
12:25PM 31.4178 -81.9700 356° North 441 507 41,000  Level Jacksonville Center
12:26PM 31.5286 -81.9786 356° North 446 513 41,000  Level Jacksonville Center
12:27PM 31.6622 -81.9919 355° North 440 506 41,000  Level Jacksonville Center
12:28PM 31.7833 -82.0053 355° North 440 506 41,000  Level Jacksonville Center
12:30PM 32.0897 -82.0556 352° North 453 521 41,000  Level Atlanta Center
12:31PM 32.2128 -82.0628 357° North 442 509 41,000  Level Atlanta Center
12:32PM 32.3319 -82.0722 356° North 437 503 41,000  Level Atlanta Center
12:33PM 32.4575 -82.0819 356° North 437 503 41,000  Level Atlanta Center
12:34PM 32.5786 -82.0864 358° North 444 511 41,000  Level Atlanta Center
12:35PM 32.7019 -82.0961 356° North 444 511 41,000  Level Atlanta Center
12:36PM 32.8272 -82.1058 356° North 444 511 41,000  Level Atlanta Center
12:37PM 32.9525 -82.1128 357° North 444 511 41,000  Level Atlanta Center
12:39PM 33.2011 -82.1297 357° North 444 511 41,000  Level Atlanta Center
12:40PM 33.3244 -82.1369 357° North 439 505 41,000  Level Atlanta Center
12:41PM 33.4456 -82.1442 357° North 439 505 41,000  Level Atlanta Center
12:42PM 33.5586 -82.1517 357° North 444 511 41,000  Level Atlanta Center
12:43PM 33.6817 -82.1592 357° North 444 511 41,000  Level Atlanta Center
12:44PM 33.8067 -82.1439 North 444 511 41,000  Level Atlanta Center
12:45PM 33.9336 -82.1208 North 444 511 41,000  Level Atlanta Center
12:46PM 34.0567 -82.1006 North 444 511 41,000  Level Atlanta Center
12:47PM 34.1836 -82.0775 North 449 517 41,000  Level Atlanta Center
12:48PM 34.3083 -82.0572 North 449 517 41,000  Level Atlanta Center
12:49PM 34.4333 -82.0339 North 449 517 41,000  Level Atlanta Center
12:50PM 34.5603 -82.0133 North 449 517 41,000  Level Atlanta Center
12:51PM 34.6997 -81.9897 North 449 517 41,000  Level Atlanta Center
12:52PM 34.8244 -81.9639 10° North 454 522 41,000  Level Atlanta Center
12:53PM 34.9369 -81.9486 North 454 522 41,000  Level Atlanta Center
12:54PM 35.0681 -81.9300 North 468 539 41,000  Level Atlanta Center
12:55PM 35.1953 -81.9242 North 462 532 41,000  Level Atlanta Center
12:56PM 35.3264 -81.9158 North 457 526 41,000  Level Atlanta Center
12:57PM 35.4517 -81.9125 North 457 526 41,000  Level Atlanta Center
12:58PM 35.5933 -81.9064 North 457 526 41,000  Level Atlanta Center
12:59PM 35.7206 -81.9003 North 457 526 41,000  Level Atlanta Center
01:00PM 35.8497 -81.8944 North 457 526 41,000  Level Atlanta Center
01:01PM 35.9767 -81.8858 North 457 526 41,000  Level Atlanta Center
01:02PM 36.1081 -81.8747 North 462 532 41,000  Level Atlanta Center
01:03PM 36.2353 -81.8714 North 462 532 41,000  Level Atlanta Center
01:04PM 36.3478 -81.8708 360° North 457 526 41,000  Level Atlanta Center
01:05PM 36.4792 -81.8725 359° North 457 526 41,000  Level Atlanta Center
01:06PM 36.6147 -81.8767 359° North 457 526 41,000  Level Atlanta Center
01:09PM 36.9092 -81.8819 359° North 458 527 41,000  Level Indianapolis Center
01:10PM 37.0375 -81.8856 359° North 457 526 41,000  Level Indianapolis Center
01:11PM 37.1847 -81.8883 359° North 454 522 41,000  Level Indianapolis Center
01:12PM 37.3119 -81.8931 358° North 457 526 41,000  Level Indianapolis Center
01:13PM 37.4403 -81.8961 359° North 459 528 41,000  Level Indianapolis Center
01:14PM 37.5672 -81.9028 358° North 455 524 41,000  Level Indianapolis Center
01:15PM 37.6953 -81.9111 357° North 458 527 41,000  Level Indianapolis Center
01:16PM 37.8244 -81.9200 357° North 462 532 41,000  Level Indianapolis Center
01:17PM 37.9611 -81.9281 357° North 468 539 41,000  Level Indianapolis Center
01:18PM 38.0917 -81.9372 357° North 465 535 41,000  Level Indianapolis Center
01:19PM 38.2222 -81.9447 357° North 467 537 41,000  Level Indianapolis Center
01:20PM 38.3522 -81.9542 357° North 466 536 41,000  Level Indianapolis Center
01:21PM 38.4819 -81.9625 357° North 463 533 41,000  Level Indianapolis Center
01:22PM 38.6100 -81.9711 357° North 457 526 41,000  Level Indianapolis Center
01:23PM 38.7383 -81.9803 357° North 457 526 41,000  Level Indianapolis Center
01:24PM 38.8919 -81.9900 357° North 454 522 41,000  Level Indianapolis Center
01:25PM 39.0208 -81.9992 357° North 458 527 41,000 -240 Level Indianapolis Center
01:26PM 39.1497 -82.0075 357° North 464 534 40,600 -600 Descending Indianapolis Center
01:27PM 39.2789 -82.0150 357° North 463 533 39,800 -840 Descending Indianapolis Center
01:28PM 39.4044 -82.0253 356° North 453 521 38,900 -900 Descending Indianapolis Center
01:29PM 39.5333 -82.0333 357° North 459 528 38,000 -960 Descending Indianapolis Center
01:30PM 39.6597 -82.0681 348° North 464 534 37,000 -960 Descending Indianapolis Center
01:31PM 39.7850 -82.1042 348° North 460 529 36,100 -900 Descending Indianapolis Center
01:32PM 39.9108 -82.1436 346° North 462 532 35,200 -840 Descending Indianapolis Center
01:33PM 40.0383 -82.1833 347° North 467 537 34,400 -840 Descending Indianapolis Center
01:34PM 40.1678 -82.2219 347° North 472 543 33,600 -840 Descending Indianapolis Center
01:35PM 40.3114 -82.2369 355° North 474 545 32,700 -900 Descending Indianapolis Center
01:36PM 40.4444 -82.2258 North 475 547 31,800 -840 Descending Indianapolis Center
01:37PM 40.5758 -82.2175 North 470 541 31,000 -840 Descending Indianapolis Center
01:38PM 40.6642 -82.2117 North 463 533 30,400 -600 Descending Cleveland Center
01:39PM 40.7872 -82.2039 North 458 527 30,000 -480 Descending Cleveland Center
01:40PM 40.9147 -82.1933 North 458 527 29,500 -720 Descending Cleveland Center
01:41PM 41.0436 -82.2103 354° North 463 533 28,600 -1,800 Descending Cleveland Center
01:42PM 41.1783 -82.2714 341° North 458 527 26,000 -2,760 Descending Cleveland Center
01:43PM 41.2961 -82.3353 338° Northwest 458 527 23,100 -2,880 Descending Cleveland Center
01:44PM 41.4086 -82.3467 356° North 416 479 20,300 -2,700 Descending Cleveland Center
01:45PM 41.5189 -82.3581 356° North 401 461 17,800 -2,040 Descending Cleveland Center
01:45PM 41.5458 -82.3725 338° Northwest 403 464 17,500 -2,040 Descending Cleveland Center
01:46PM 41.6197 -82.4331 329° Northwest 401 461 15,800 -2,580 Descending Cleveland Center
01:47PM 41.6753 -82.4819 327° Northwest 415 478 14,400 -2,100 Descending Cleveland Center
01:47PM 41.7042 -82.5050 329° Northwest 401 461 13,700 -2,460 Descending Cleveland Center
01:48PM 41.7678 -82.5625 326° Northwest 392 451 11,900 -2,520 Descending Cleveland Center
01:48PM 41.7944 -82.5828 330° Northwest 395 455 11,200 -1,740 Descending Cleveland Center
01:49PM 41.8664 -82.6464 327° Northwest 368 423 10,000 -1,200 Descending Cleveland Center
01:49PM 41.8850 -82.6556 340° North 385 443 10,000  Level Cleveland Center
01:50PM 41.9569 -82.7053 333° Northwest 354 407 10,000 -120 Level Cleveland Center
01:50PM 41.9694 -82.7142 332° Northwest 365 420 9,900 -1,020 Descending Cleveland Center
01:51PM 42.0331 -82.7553 334° Northwest 306 352 9,000 -1,140 Descending Cleveland Center
01:52PM 42.1072 -82.8056 333° Northwest 311 358 8,000 -1,080 Descending Cleveland Center
01:52PM 42.1258 -82.8172 335° Northwest 314 361 7,700 -1,620 Descending Cleveland Center
01:53PM 42.1875 -82.8614 332° Northwest 308 354 6,400 -1,440 Descending Cleveland Center
01:53PM 42.2000 -82.8675 340° North 309 356 6,300 -1,380 Descending Cleveland Center
01:54PM 42.2594 -82.9117 331° Northwest 289 333 5,000 -1,800 Descending Cleveland Center
01:54PM 42.2781 -82.9236 335° Northwest 298 343 4,500 -1,380 Descending Cleveland Center
01:55PM 42.3294 -82.9592 333° Northwest 274 315 3,600 -1,140 Descending Cleveland Center
01:55PM 42.3414 -82.9767 313° West 286 329 3,400 -540 Descending Cleveland Center
01:56PM 42.3736 -83.0283 310° West 236 272 3,100 -540 Descending Cleveland Center
01:57PM 42.4081 -83.0861 309° West 167 192 2,500 -840 Descending Cleveland Center
01:58PM 42.4378 -83.0506 41° Northeast 139 160 1,500 -1,020 Descending Cleveland Center
02:00PM 42.4093 -83.0102 132° Southeast  Level Estimated